createdAt,value
2022-11-19T00:02:10.418Z,100113.50
2022-11-19T00:04:55.738Z,100115.97
2022-11-19T00:07:40.584Z,100109.88
2022-11-19T00:10:25.790Z,100109.22
2022-11-19T00:13:12.014Z,100115.97
2022-11-19T00:16:02.527Z,100110.69
2022-11-19T00:18:47.468Z,100108.88
2022-11-19T00:21:32.694Z,100108.06
2022-11-19T00:24:18.170Z,100096.16
2022-11-19T00:27:03.273Z,100101.28
2022-11-19T00:29:48.294Z,100100.78
2022-11-19T00:32:33.309Z,100099.09
2022-11-19T00:35:18.100Z,100099.78
2022-11-19T00:38:03.260Z,100100.59
2022-11-19T00:40:48.286Z,100095.50
2022-11-19T00:43:49.681Z,100094.81
2022-11-19T00:46:34.820Z,100101.56
2022-11-19T00:49:19.837Z,100091.19
2022-11-19T00:52:05.497Z,100092.00
2022-11-19T00:54:50.293Z,100098.91
2022-11-19T00:57:35.334Z,100105.19
2022-11-19T01:00:20.510Z,100110.66
2022-11-19T01:03:05.729Z,100096.28
2022-11-19T01:05:50.670Z,100110.03
2022-11-19T01:08:36.233Z,100110.50
2022-11-19T01:11:24.761Z,100106.84
2022-11-19T01:14:09.995Z,100117.47
2022-11-19T01:16:55.128Z,100111.53
2022-11-19T01:19:40.207Z,100113.19
2022-11-19T01:22:25.308Z,100113.34
2022-11-19T01:25:10.830Z,100115.84
2022-11-19T01:27:57.411Z,100115.16
2022-11-19T01:30:43.295Z,100118.50
2022-11-19T01:33:28.152Z,100121.97
2022-11-19T01:36:16.593Z,100113.34
2022-11-19T01:39:01.826Z,100115.69
2022-11-19T01:41:47.360Z,100119.78
2022-11-19T01:44:57.190Z,100124.09
2022-11-19T01:47:42.124Z,100114.69
2022-11-19T01:50:29.339Z,100121.78
2022-11-19T01:53:14.600Z,100125.56
2022-11-19T01:56:03.982Z,100129.38
2022-11-19T01:58:55.223Z,100125.59
2022-11-19T02:01:42.981Z,100127.38
2022-11-19T02:04:28.869Z,100121.47
2022-11-19T02:07:14.167Z,100129.22
2022-11-19T02:10:02.680Z,100130.22
2022-11-19T02:13:09.139Z,100130.22
2022-11-19T02:16:03.747Z,100128.38
2022-11-19T02:18:54.199Z,100130.34
2022-11-19T02:22:09.533Z,100134.00
2022-11-19T02:25:01.453Z,100124.22
2022-11-19T02:28:02.754Z,100129.38
2022-11-19T02:30:53.902Z,100133.81
2022-11-19T02:34:01.392Z,100124.72
2022-11-19T02:37:03.312Z,100130.84
2022-11-19T02:39:54.241Z,100134.75
2022-11-19T02:43:03.535Z,100135.59
2022-11-19T02:45:56.992Z,100130.56
2022-11-19T02:48:48.174Z,100134.47
2022-11-19T02:51:33.454Z,100135.47
2022-11-19T02:54:18.761Z,100136.78
2022-11-19T02:57:03.877Z,100135.88
2022-11-19T03:00:13.848Z,100136.78
2022-11-19T03:03:24.014Z,100134.00
2022-11-19T03:06:14.403Z,100130.84
2022-11-19T03:09:00.667Z,100137.78
2022-11-19T03:12:07.717Z,100134.00
2022-11-19T03:15:15.738Z,100141.22
2022-11-19T03:18:22.297Z,100132.44
2022-11-19T03:21:19.218Z,100128.16
2022-11-19T03:24:15.659Z,100134.25
2022-11-19T03:27:08.314Z,100140.16
2022-11-19T03:29:57.766Z,100135.41
2022-11-19T03:32:53.894Z,100136.22
2022-11-19T03:35:53.073Z,100136.72
2022-11-19T03:38:43.110Z,100133.22
2022-11-19T03:41:29.563Z,100142.16
2022-11-19T03:44:19.743Z,100149.06
2022-11-19T03:47:13.038Z,100148.09
2022-11-19T03:50:02.927Z,100160.63
2022-11-19T03:52:47.784Z,100163.53
2022-11-19T03:55:39.706Z,100158.91
2022-11-19T03:58:26.497Z,100159.47
2022-11-19T04:01:11.771Z,100163.91
2022-11-19T04:04:15.143Z,100163.13
2022-11-19T04:07:00.310Z,100167.41
2022-11-19T04:09:45.804Z,100183.88
2022-11-19T04:12:30.627Z,100181.78
2022-11-19T04:15:16.109Z,100181.22
2022-11-19T04:18:00.989Z,100190.75
2022-11-19T04:20:46.078Z,100194.56
2022-11-19T04:23:30.987Z,100206.59
2022-11-19T04:26:15.806Z,100210.81
2022-11-19T04:29:00.971Z,100213.31
2022-11-19T04:31:46.188Z,100226.28
2022-11-19T04:34:31.041Z,100211.75
2022-11-19T04:37:15.993Z,100219.50
2022-11-19T04:40:01.092Z,100222.28
2022-11-19T04:42:46.121Z,100229.03
2022-11-19T04:45:31.421Z,100226.56
2022-11-19T04:48:16.473Z,100230.47
2022-11-19T04:51:01.481Z,100228.22
2022-11-19T04:53:46.733Z,100228.75
2022-11-19T04:56:31.881Z,100229.75
2022-11-19T04:59:16.977Z,100225.72
2022-11-19T05:02:01.967Z,100227.59
2022-11-19T05:04:46.959Z,100224.84
2022-11-19T05:07:32.172Z,100229.53
2022-11-19T05:10:17.087Z,100232.16
2022-11-19T05:13:01.970Z,100235.88
2022-11-19T05:15:47.297Z,100237.69
2022-11-19T05:18:32.347Z,100246.50
2022-11-19T05:21:17.630Z,100248.97
2022-11-19T05:24:02.426Z,100257.81
2022-11-19T05:26:47.657Z,100259.09
2022-11-19T05:29:32.658Z,100263.50
2022-11-19T05:32:17.537Z,100258.94
2022-11-19T05:35:03.731Z,100262.06
2022-11-19T05:37:49.775Z,100266.69
2022-11-19T05:40:34.822Z,100267.59
2022-11-19T05:43:19.931Z,100269.81
2022-11-19T05:46:05.075Z,100272.84
2022-11-19T05:48:49.871Z,100274.59
2022-11-19T05:51:35.983Z,100279.69
2022-11-19T05:54:21.395Z,100288.97
2022-11-19T05:57:06.305Z,100281.47
2022-11-19T05:59:51.590Z,100290.81
2022-11-19T06:02:36.614Z,100299.38
2022-11-19T06:05:21.741Z,100299.16
2022-11-19T06:08:06.751Z,100293.47
2022-11-19T06:10:51.676Z,100284.19
2022-11-19T06:13:36.860Z,100295.69
2022-11-19T06:16:22.031Z,100298.47
2022-11-19T06:19:06.933Z,100304.56
2022-11-19T06:21:52.748Z,100292.00
2022-11-19T06:24:37.530Z,100303.28
2022-11-19T06:27:22.537Z,100310.03
2022-11-19T06:30:07.918Z,100317.63
2022-11-19T06:32:53.160Z,100311.31
2022-11-19T06:35:38.386Z,100316.81
2022-11-19T06:38:23.536Z,100317.53
2022-11-19T06:41:08.312Z,100325.44
2022-11-19T06:43:53.467Z,100333.94
2022-11-19T06:46:38.601Z,100341.41
2022-11-19T06:49:23.933Z,100341.31
2022-11-19T06:52:09.257Z,100349.97
2022-11-19T06:54:55.100Z,100346.22
2022-11-19T06:57:40.004Z,100341.47
2022-11-19T07:00:25.087Z,100349.03
2022-11-19T07:03:10.089Z,100355.47
2022-11-19T07:05:59.929Z,100369.63
2022-11-19T07:08:44.850Z,100380.13
2022-11-19T07:11:30.977Z,100380.75
2022-11-19T07:14:15.986Z,100387.19
2022-11-19T07:17:01.432Z,100385.97
2022-11-19T07:19:46.408Z,100397.38
2022-11-19T07:22:31.686Z,100408.38
2022-11-19T07:25:16.874Z,100406.13
2022-11-19T07:28:02.043Z,100401.59
2022-11-19T07:30:47.301Z,100412.19
2022-11-19T07:33:32.875Z,100412.19
2022-11-19T07:36:18.670Z,100418.50
2022-11-19T07:39:05.468Z,100414.09
2022-11-19T07:42:08.969Z,100421.03
2022-11-19T07:44:55.146Z,100416.59
2022-11-19T07:47:40.393Z,100414.19
2022-11-19T07:50:25.290Z,100412.69
2022-11-19T07:53:10.166Z,100420.91
2022-11-19T07:55:55.163Z,100427.91
2022-11-19T07:58:40.410Z,100436.59
2022-11-19T08:01:26.742Z,100434.72
2022-11-19T08:04:11.592Z,100444.34
2022-11-19T08:06:56.507Z,100443.53
2022-11-19T08:09:41.501Z,100452.81
2022-11-19T08:12:26.766Z,100454.25
2022-11-19T08:15:11.637Z,100460.81
2022-11-19T08:18:12.146Z,100460.31
2022-11-19T08:21:04.383Z,100451.75
2022-11-19T08:23:49.494Z,100454.72
2022-11-19T08:26:34.670Z,100469.47
2022-11-19T08:29:21.872Z,100469.00
2022-11-19T08:32:06.963Z,100469.34
2022-11-19T08:34:52.167Z,100470.53
2022-11-19T08:37:37.232Z,100472.91
2022-11-19T08:40:22.420Z,100469.44
2022-11-19T08:43:07.402Z,100476.13
2022-11-19T08:45:55.531Z,100474.81
2022-11-19T08:48:40.617Z,100475.31
2022-11-19T08:51:26.199Z,100475.88
2022-11-19T08:54:12.710Z,100473.00
2022-11-19T08:56:58.074Z,100473.03
2022-11-19T08:59:42.900Z,100481.78
2022-11-19T09:02:28.974Z,100472.81
2022-11-19T09:05:14.848Z,100477.53
2022-11-19T09:08:00.001Z,100480.81
2022-11-19T09:10:45.234Z,100474.91
2022-11-19T09:13:30.217Z,100481.56
2022-11-19T09:16:15.412Z,100480.34
2022-11-19T09:19:02.060Z,100488.59
2022-11-19T09:21:46.878Z,100486.81
2022-11-19T09:24:31.936Z,100503.31
2022-11-19T09:27:16.815Z,100500.38
2022-11-19T09:30:02.006Z,100496.44
2022-11-19T09:32:47.220Z,100499.53
2022-11-19T09:35:32.480Z,100508.53
2022-11-19T09:38:17.503Z,100508.69
2022-11-19T09:41:43.789Z,100504.72
2022-11-19T09:44:58.883Z,100502.59
2022-11-19T09:48:11.019Z,100507.22
2022-11-19T09:51:11.326Z,100519.16
2022-11-19T09:53:59.723Z,100514.31
2022-11-19T09:56:46.709Z,100530.94
2022-11-19T09:59:39.682Z,100520.22
2022-11-19T10:02:24.626Z,100522.72
2022-11-19T10:05:15.577Z,100522.44
2022-11-19T10:08:12.197Z,100524.03
2022-11-19T10:11:31.993Z,100542.72
2022-11-19T10:14:39.635Z,100527.59
2022-11-19T10:17:46.071Z,100529.38
2022-11-19T10:20:37.483Z,100539.63
2022-11-19T10:23:44.235Z,100528.38
2022-11-19T10:26:39.395Z,100538.34
2022-11-19T10:29:28.634Z,100543.34
2022-11-19T10:32:27.328Z,100534.72
2022-11-19T10:35:19.047Z,100539.75
2022-11-19T10:38:13.568Z,100549.53
2022-11-19T10:41:04.808Z,100542.50
2022-11-19T10:43:57.630Z,100552.63
2022-11-19T10:46:43.382Z,100552.97
2022-11-19T10:49:28.502Z,100549.91
2022-11-19T10:52:27.004Z,100548.69
2022-11-19T10:55:28.952Z,100547.63
2022-11-19T10:58:21.345Z,100547.63
2022-11-19T11:01:29.384Z,100548.44
2022-11-19T11:04:21.360Z,100536.66
2022-11-19T11:07:06.593Z,100537.38
2022-11-19T11:09:51.502Z,100543.94
2022-11-19T11:12:56.292Z,100537.28
2022-11-19T11:15:47.142Z,100543.22
2022-11-19T11:18:32.654Z,100534.28
2022-11-19T11:21:36.547Z,100542.28
2022-11-19T11:24:22.158Z,100532.75
2022-11-19T11:27:22.486Z,100531.16
2022-11-19T11:30:13.277Z,100529.63
2022-11-19T11:32:58.226Z,100526.88
2022-11-19T11:35:45.305Z,100533.06
2022-11-19T11:38:30.650Z,100534.59
2022-11-19T11:44:56.364Z,100527.09
2022-11-19T11:47:41.535Z,100529.31
2022-11-19T11:50:28.374Z,100528.59
2022-11-19T11:53:17.606Z,100524.19
2022-11-19T11:56:02.755Z,100521.59
2022-11-19T11:58:47.591Z,100525.91
2022-11-19T12:01:32.762Z,100515.63
2022-11-19T12:04:17.496Z,100514.34
2022-11-19T12:07:23.795Z,100519.97
2022-11-19T12:10:25.612Z,100520.75
2022-11-19T12:13:44.579Z,100515.31
2022-11-19T12:16:45.965Z,100520.72
2022-11-19T12:19:48.922Z,100526.19
2022-11-19T12:23:07.071Z,100522.47
2022-11-19T12:26:12.489Z,100522.56
2022-11-19T12:29:03.235Z,100520.47
2022-11-19T12:32:01.390Z,100522.91
2022-11-19T12:35:21.215Z,100525.06
2022-11-19T12:38:29.890Z,100521.91
2022-11-19T12:41:26.891Z,100526.34
2022-11-19T12:44:54.039Z,100530.09
2022-11-19T12:48:05.809Z,100531.16
2022-11-19T12:51:12.724Z,100531.66
2022-11-19T12:54:04.251Z,100540.13
2022-11-19T12:57:21.499Z,100543.34
2022-11-19T13:00:20.151Z,100530.22
2022-11-19T13:03:14.878Z,100538.44
2022-11-19T13:06:04.894Z,100540.09
2022-11-19T13:08:55.110Z,100540.78
2022-11-19T13:11:51.110Z,100545.00
2022-11-19T13:14:53.486Z,100552.88
2022-11-19T13:17:45.002Z,100547.63
2022-11-19T13:20:48.977Z,100542.72
2022-11-19T13:23:41.893Z,100543.44
2022-11-19T13:26:31.726Z,100535.00
2022-11-19T13:29:51.847Z,100540.22
2022-11-19T13:32:54.211Z,100541.66
2022-11-19T13:35:58.603Z,100553.00
2022-11-19T13:38:53.175Z,100560.25
2022-11-19T13:42:09.456Z,100546.53
2022-11-19T13:44:54.741Z,100559.75
2022-11-19T13:47:57.899Z,100558.13
2022-11-19T13:50:45.980Z,100560.25
2022-11-19T13:53:45.728Z,100566.81
2022-11-19T13:56:41.411Z,100562.66
2022-11-19T13:59:39.841Z,100560.38
2022-11-19T14:02:57.092Z,100557.25
2022-11-19T14:06:23.594Z,100551.31
2022-11-19T14:09:43.953Z,100557.03
2022-11-19T14:12:42.045Z,100554.78
2022-11-19T14:16:18.485Z,100557.53
2022-11-19T14:19:24.490Z,100562.41
2022-11-19T14:22:51.983Z,100560.63
2022-11-19T14:26:00.389Z,100560.00
2022-11-19T14:28:52.469Z,100558.09
2022-11-19T14:32:00.288Z,100561.72
2022-11-19T14:35:15.429Z,100574.16
2022-11-19T14:38:19.108Z,100574.44
2022-11-19T14:41:13.847Z,100574.19
2022-11-19T14:44:09.450Z,100579.22
2022-11-19T14:46:54.642Z,100570.88
2022-11-19T14:49:39.897Z,100575.97
2022-11-19T14:52:30.266Z,100571.66
2022-11-19T14:55:21.066Z,100570.59
2022-11-19T14:58:17.959Z,100565.50
2022-11-19T15:01:10.594Z,100570.88
2022-11-19T15:03:59.601Z,100579.16
2022-11-19T15:06:45.451Z,100574.66
2022-11-19T15:10:03.913Z,100577.03
2022-11-19T15:13:01.106Z,100577.97
2022-11-19T15:15:48.885Z,100576.34
2022-11-19T15:18:37.046Z,100575.38
2022-11-19T15:21:50.068Z,100579.53
2022-11-19T15:24:47.190Z,100580.38
2022-11-19T15:27:40.026Z,100586.13
2022-11-19T15:31:14.533Z,100581.22
2022-11-19T15:34:19.271Z,100583.75
2022-11-19T15:37:10.427Z,100582.75
2022-11-19T15:39:57.362Z,100583.13
2022-11-19T15:43:01.899Z,100588.63
2022-11-19T15:45:55.242Z,100592.53
2022-11-19T15:48:57.536Z,100598.16
2022-11-19T15:52:17.960Z,100597.06
2022-11-19T15:55:18.940Z,100604.34
2022-11-19T15:58:14.524Z,100599.34
2022-11-19T16:00:59.448Z,100596.94
2022-11-19T16:03:45.009Z,100590.16
2022-11-19T16:06:30.853Z,100602.78
2022-11-19T16:09:19.163Z,100588.97
2022-11-19T16:12:23.320Z,100595.88
2022-11-19T16:15:42.382Z,100589.53
2022-11-19T16:18:27.415Z,100593.25
2022-11-19T16:21:18.142Z,100593.16
2022-11-19T16:24:22.329Z,100594.31
2022-11-19T16:27:10.970Z,100599.19
2022-11-19T16:29:56.523Z,100602.19
2022-11-19T16:32:41.727Z,100599.81
2022-11-19T16:35:29.862Z,100608.13
2022-11-19T16:38:22.262Z,100606.13
2022-11-19T16:41:28.401Z,100604.09
2022-11-19T16:44:20.967Z,100604.81
2022-11-19T16:47:13.712Z,100611.72
2022-11-19T16:50:05.649Z,100607.44
2022-11-19T16:52:51.073Z,100603.41
2022-11-19T16:55:39.001Z,100604.69
2022-11-19T16:58:27.549Z,100603.25
2022-11-19T17:01:17.667Z,100604.56
2022-11-19T17:04:07.299Z,100602.09
2022-11-19T17:06:52.192Z,100606.97
2022-11-19T17:09:42.223Z,100612.56
2022-11-19T17:12:29.248Z,100614.44
2022-11-19T17:15:43.035Z,100613.13
2022-11-19T17:18:34.258Z,100616.22
2022-11-19T17:21:29.227Z,100620.91
2022-11-19T17:24:17.650Z,100621.22
2022-11-19T17:27:03.068Z,100629.22
2022-11-19T17:29:48.515Z,100627.91
2022-11-19T17:32:39.877Z,100620.75
2022-11-19T17:35:37.573Z,100626.72
2022-11-19T17:38:27.669Z,100633.75
2022-11-19T17:41:16.277Z,100639.47
2022-11-19T17:44:19.804Z,100639.56
2022-11-19T17:47:22.490Z,100641.84
2022-11-19T17:50:08.273Z,100650.19
2022-11-19T17:52:53.106Z,100648.25
2022-11-19T17:55:39.409Z,100648.16
2022-11-19T17:58:24.149Z,100650.31
2022-11-19T18:01:10.324Z,100639.09
2022-11-19T18:03:55.135Z,100651.41
2022-11-19T18:06:41.045Z,100640.53
2022-11-19T18:09:25.887Z,100640.91
2022-11-19T18:12:15.564Z,100633.53
2022-11-19T18:15:02.302Z,100641.38
2022-11-19T18:17:47.434Z,100643.53
2022-11-19T18:20:32.639Z,100636.75
2022-11-19T18:23:17.770Z,100633.50
2022-11-19T18:26:02.842Z,100629.44
2022-11-19T18:28:49.200Z,100616.25
2022-11-19T18:31:42.759Z,100622.66
2022-11-19T18:34:27.979Z,100623.63
2022-11-19T18:37:13.178Z,100627.78
2022-11-19T18:39:58.558Z,100631.50
2022-11-19T18:43:03.606Z,100634.47
2022-11-19T18:45:48.313Z,100639.25
2022-11-19T18:48:33.324Z,100624.09
2022-11-19T18:51:18.192Z,100633.53
2022-11-19T18:54:03.640Z,100640.31
2022-11-19T18:56:48.590Z,100632.22
2022-11-19T18:59:33.567Z,100636.47
2022-11-19T19:02:18.607Z,100641.38
2022-11-19T19:05:03.950Z,100647.81
2022-11-19T19:07:48.915Z,100641.72
2022-11-19T19:10:34.741Z,100648.41
2022-11-19T19:13:19.743Z,100639.44
2022-11-19T19:16:05.033Z,100645.78
2022-11-19T19:18:49.876Z,100639.06
2022-11-19T19:21:34.638Z,100639.91
2022-11-19T19:24:19.805Z,100637.69
2022-11-19T19:27:05.340Z,100644.22
2022-11-19T19:29:50.383Z,100632.53
2022-11-19T19:32:35.527Z,100639.91
2022-11-19T19:35:20.494Z,100641.97
2022-11-19T19:38:05.717Z,100643.50
2022-11-19T19:40:50.536Z,100638.50
2022-11-19T19:43:35.537Z,100642.56
2022-11-19T19:46:22.508Z,100644.22
2022-11-19T19:49:07.637Z,100640.66
2022-11-19T19:51:52.692Z,100639.69
2022-11-19T19:54:40.090Z,100644.31
2022-11-19T19:57:29.481Z,100644.44
2022-11-19T20:00:14.984Z,100643.84
2022-11-19T20:03:00.206Z,100650.38
2022-11-19T20:05:49.569Z,100652.91
2022-11-19T20:08:35.718Z,100648.38
2022-11-19T20:11:24.486Z,100649.00
2022-11-19T20:14:09.585Z,100647.09
2022-11-19T20:16:54.453Z,100644.69
2022-11-19T20:19:39.506Z,100640.41
2022-11-19T20:22:24.682Z,100644.34
2022-11-19T20:25:09.837Z,100640.75
2022-11-19T20:27:55.693Z,100638.69
2022-11-19T20:30:40.963Z,100650.38
2022-11-19T20:33:25.922Z,100653.00
2022-11-19T20:36:13.517Z,100645.50
2022-11-19T20:38:58.861Z,100652.06
2022-11-19T20:42:02.146Z,100651.44
2022-11-19T20:44:47.222Z,100651.78
2022-11-19T20:47:32.254Z,100653.94
2022-11-19T20:50:17.378Z,100658.81
2022-11-19T20:53:02.267Z,100669.06
2022-11-19T20:56:04.494Z,100666.41
2022-11-19T20:58:50.247Z,100657.97
2022-11-19T21:01:36.138Z,100653.22
2022-11-19T21:04:21.995Z,100655.09
2022-11-19T21:07:07.162Z,100649.72
2022-11-19T21:09:52.131Z,100649.38
2022-11-19T21:12:57.286Z,100655.31
2022-11-19T21:15:42.265Z,100654.50
2022-11-19T21:18:29.247Z,100653.19
2022-11-19T21:21:19.331Z,100652.09
2022-11-19T21:24:04.883Z,100654.00
2022-11-19T21:26:49.934Z,100656.75
2022-11-19T21:29:35.671Z,100655.19
2022-11-19T21:32:20.480Z,100654.63
2022-11-19T21:35:06.107Z,100653.53
2022-11-19T21:37:52.246Z,100653.66
2022-11-19T21:40:40.768Z,100653.69
2022-11-19T21:43:27.132Z,100653.25
2022-11-19T21:46:12.828Z,100651.91
2022-11-19T21:48:57.890Z,100651.53
2022-11-19T21:51:43.183Z,100654.28
2022-11-19T21:54:28.455Z,100646.66
2022-11-19T21:57:13.132Z,100638.16
2022-11-19T21:59:58.302Z,100639.38
2022-11-19T22:02:44.030Z,100639.41
2022-11-19T22:05:29.011Z,100638.94
2022-11-19T22:08:13.970Z,100639.78
2022-11-19T22:10:59.519Z,100638.66
2022-11-19T22:13:44.638Z,100642.22
2022-11-19T22:16:31.628Z,100634.63
2022-11-19T22:19:16.439Z,100639.22
2022-11-19T22:22:03.262Z,100643.75
2022-11-19T22:24:48.094Z,100642.28
2022-11-19T22:27:33.099Z,100644.91
2022-11-19T22:30:17.913Z,100644.28
2022-11-19T22:33:02.953Z,100643.84
2022-11-19T22:35:48.059Z,100637.56
2022-11-19T22:38:35.620Z,100638.69
2022-11-19T22:41:21.832Z,100643.06
2022-11-19T22:44:06.719Z,100647.34
2022-11-19T22:46:52.369Z,100640.06
2022-11-19T22:49:37.497Z,100632.00
2022-11-19T22:52:22.825Z,100641.66
2022-11-19T22:55:08.497Z,100633.00
2022-11-19T22:57:53.562Z,100635.41
2022-11-19T23:00:44.620Z,100631.50
2022-11-19T23:03:29.533Z,100635.81
2022-11-19T23:06:14.562Z,100638.56
2022-11-19T23:08:59.670Z,100640.06
2022-11-19T23:12:03.122Z,100644.69
2022-11-19T23:14:48.195Z,100639.72
2022-11-19T23:17:33.323Z,100639.34
2022-11-19T23:20:18.126Z,100640.66
2022-11-19T23:23:03.519Z,100636.94
2022-11-19T23:25:48.342Z,100643.53
2022-11-19T23:28:35.349Z,100638.03
2022-11-19T23:31:23.019Z,100646.31
2022-11-19T23:34:08.218Z,100635.94
2022-11-19T23:36:52.910Z,100646.41
2022-11-19T23:39:38.037Z,100631.78
2022-11-19T23:42:23.020Z,100634.88
2022-11-19T23:45:08.347Z,100636.59
2022-11-19T23:47:53.397Z,100633.81
2022-11-19T23:50:38.604Z,100632.75
2022-11-19T23:53:23.619Z,100632.63
2022-11-19T23:56:09.933Z,100626.44
2022-11-19T23:58:55.247Z,100635.81
